メインページ
METAR-TAF:

METAR-TAF

空港 :

エセンボーア国際空港

アンカラ-エセンボーア, トルコ

緯度: 40-07N, 経度: 032-59E, 海抜: 953m

現時点の気象観測

当レポートは26分前の01:50(UTC)に作成
変向風 2kt
気温 -2°C
湿度 93%
気圧 1018 hPa
視程: 8000m
高度3500ftの雲は散在している
高度10000ftの千切れ雲あり

METAR: LTAC 210150Z VRB02KT 8000 SCT035 BKN100 M02/M03 Q1018 NOSIG RMK RWY21L 11003KT RWY03L 00000KT RWY21R 10002KT

時間: 05:16 (02:16 UTC)

予報

当レポートは3時間36分前の22:40(UTC)に作成
予報は21日の 00時(UTC)から 21日の 24時(UTC)まで有効
変向風 2kt
視程: 8000m
高度4000ftの雲は散在している
高度10000ftの千切れ雲あり
確率 40%
21日の 03時(UTC)から 21日の 07時(UTC)まで
視程: 4000m
21日の 09時(UTC)から 21日の 13時(UTC)まで一時的に
高度2500ftの千切れ雲あり
高度8000ftの千切れ雲あり
小雨, 雪
21日の 13時(UTC)から 21日の 15時(UTC)まで徐々に
高度2500ftの千切れ雲あり
高度8000ftの千切れ雲あり
小雨

TAF: LTAC 202240Z 2100/2124 VRB02KT 8000 SCT040 BKN100 PROB40 2103/2107 4000 BR TEMPO 2109/2113 -RASN BKN025 BKN080 BECMG 2113/2115 -RA BKN025 BKN080

4,000以上の空港の気象観測と天気予報(METAR報とTAF報)

利用可能な観測所は地図上に黄色い丸と赤い丸で示す。

丸の上にカーソルを重ねると観測所名を参照できる。

次にクリックすると気象観測と天気予報を参照できる。

マップの切り替え:黒色「×」印の緑ボタンをクリックして拡大、「-」印の緑ボタンをクリックして縮小、緑色の三角印をクリックして隣りの地図に切り替え


METAR-TAF: